Time;durP1;ratioP1;P1;durP2;ratioP2;P2;SDS_P1;SDS_P2;PMS_P1;PMS_P2;Temp;Humidity;BMP_temperature;BMP_pressure;BME280_temperature;BME280_humidity;BME280_pressure;Samples;Min_cycle;Max_cycle;Signal;HPM_P1;HPM_P2
2021/11/24 00:03:31;;;;;;;17.17;9.00;;;;;;;0.18;74.79;101000.34;30862126;28;20065;-74
2021/11/24 00:18:33;;;;;;;20.90;8.93;;;;;;;0.22;72.76;101011.94;30841460;28;20059;-74
2021/11/24 00:33:35;;;;;;;24.30;9.57;;;;;;;0.23;72.08;101002.81;30856748;28;20773;-72
2021/11/24 00:48:37;;;;;;;16.60;8.17;;;;;;;0.22;72.84;101006.59;30853082;28;20058;-74
2021/11/24 01:03:39;;;;;;;10.13;5.40;;;;;;;0.38;71.29;100998.78;30817004;28;20051;-73
2021/11/24 01:18:41;;;;;;;15.37;6.33;;;;;;;0.36;69.11;101000.97;30838663;28;20047;-72
2021/11/24 01:33:43;;;;;;;10.53;6.30;;;;;;;0.34;71.55;101030.69;30887020;28;20485;-72
2021/11/24 01:48:45;;;;;;;13.40;5.87;;;;;;;0.31;72.30;101038.56;30881803;28;20058;-72
2021/11/24 02:03:48;;;;;;;10.87;5.73;;;;;;;0.13;73.20;101051.28;30890015;28;20441;-73
2021/11/24 02:18:50;;;;;;;11.13;5.47;;;;;;;-0.03;75.02;101055.63;30909767;28;20061;-72
2021/11/24 02:33:53;;;;;;;11.47;5.43;;;;;;;0.03;75.51;101062.31;30905921;28;20046;-74
2021/11/24 02:48:57;;;;;;;10.33;5.03;;;;;;;0.08;77.37;101078.16;30900522;28;20046;-74
2021/11/24 03:03:59;;;;;;;9.43;4.67;;;;;;;0.01;78.08;101091.22;30906551;28;20038;-72
2021/11/24 03:19:01;;;;;;;13.53;6.10;;;;;;;-0.11;77.91;101110.59;30821607;28;1322382;-73
2021/11/24 03:34:05;;;;;;;10.70;5.67;;;;;;;-0.34;78.69;101122.63;30866997;28;20074;-73
2021/11/24 03:49:07;;;;;;;10.80;5.27;;;;;;;-0.18;80.66;101137.00;30850284;28;20069;-73
2021/11/24 04:04:10;;;;;;;10.67;6.13;;;;;;;0.02;80.09;101162.19;30863164;28;20567;-74
2021/11/24 04:19:11;;;;;;;13.37;6.77;;;;;;;0.12;79.07;101169.06;30829886;28;20066;-73
2021/11/24 04:34:13;;;;;;;19.47;7.93;;;;;;;-0.06;77.44;101187.06;30855686;28;20497;-73
2021/11/24 04:49:15;;;;;;;21.23;10.37;;;;;;;-0.23;80.39;101193.22;30837948;28;20056;-74
2021/11/24 05:04:21;;;;;;;17.93;10.57;;;;;;;-0.38;81.26;101234.53;30852075;28;20499;-73
2021/11/24 05:19:23;;;;;;;20.73;10.27;;;;;;;-0.56;80.50;101242.91;30850205;28;20059;-73
2021/11/24 05:34:25;;;;;;;16.43;8.23;;;;;;;-0.60;81.26;101266.75;30841003;28;20046;-73
2021/11/24 05:49:28;;;;;;;22.10;9.67;;;;;;;1.16;73.77;101294.88;30842736;28;20062;-74
2021/11/24 06:04:30;;;;;;;25.37;12.93;;;;;;;3.06;65.82;101304.31;30849765;28;20065;-72
2021/11/24 06:19:32;;;;;;;25.23;9.90;;;;;;;4.36;58.94;101317.09;30862025;28;20508;-75
2021/11/24 06:34:34;;;;;;;19.97;9.47;;;;;;;5.70;52.00;101323.91;30960608;28;20141;-75
2021/11/24 06:49:36;;;;;;;19.80;9.60;;;;;;;7.01;47.77;101320.00;30982483;28;20050;-75
2021/11/24 07:04:39;;;;;;;13.63;6.83;;;;;;;7.82;43.16;101336.44;30969700;28;20585;-75
2021/11/24 07:19:41;;;;;;;13.73;5.87;;;;;;;8.23;39.66;101343.84;30968232;28;20401;-76
2021/11/24 07:34:43;;;;;;;8.87;5.80;;;;;;;8.53;39.53;101348.00;30972069;28;20496;-73
2021/11/24 07:49:45;;;;;;;9.90;6.17;;;;;;;8.94;38.29;101376.97;30971279;28;20452;-74
2021/11/24 08:04:47;;;;;;;9.73;5.10;;;;;;;9.19;38.68;101384.09;30982402;28;20061;-73
2021/11/24 08:19:49;;;;;;;15.07;6.70;;;;;;;9.46;38.32;101402.81;30978766;28;20065;-73
2021/11/24 08:34:51;;;;;;;12.00;6.53;;;;;;;9.03;39.16;101407.97;30993982;28;20042;-75
2021/11/24 08:49:53;;;;;;;12.90;5.83;;;;;;;9.36;35.96;101400.84;30990068;28;20532;-75
2021/11/24 09:04:55;;;;;;;14.73;4.50;;;;;;;9.76;35.49;101395.22;30977013;28;20053;-73
2021/11/24 09:19:57;;;;;;;5.97;4.23;;;;;;;9.70;34.54;101413.00;30987292;28;20563;-75
2021/11/24 09:35:10;;;;;;;12.67;4.33;;;;;;;10.72;33.60;101416.44;30986498;28;20089;-74
2021/11/24 09:50:14;;;;;;;9.47;4.93;;;;;;;10.18;33.87;101420.94;30986641;28;20488;-73
2021/11/24 10:05:18;;;;;;;6.93;5.13;;;;;;;10.54;32.64;101421.84;30985972;28;20477;-73
2021/11/24 10:20:23;;;;;;;8.93;4.17;;;;;;;10.55;30.64;101407.09;30977122;28;20058;-78
2021/11/24 10:35:26;;;;;;;11.83;4.33;;;;;;;11.10;29.98;101421.06;30996930;28;20050;-73
2021/11/24 10:50:34;;;;;;;9.27;4.63;;;;;;;11.34;29.28;101414.06;30997243;28;20141;-74
2021/11/24 11:05:41;;;;;;;5.47;3.10;;;;;;;10.91;27.53;101418.75;30991536;28;20089;-73
2021/11/24 11:20:49;;;;;;;5.33;3.20;;;;;;;10.47;28.77;101428.03;30976238;28;20130;-74
2021/11/24 11:35:52;;;;;;;9.67;3.60;;;;;;;9.93;27.95;101416.22;30981608;28;20500;-73
2021/11/24 11:51:00;;;;;;;6.13;4.73;;;;;;;10.56;25.42;101428.44;30997473;28;20046;-74
2021/11/24 12:06:19;;;;;;;7.93;4.43;;;;;;;11.28;24.33;101432.72;30980483;28;20430;-72
2021/11/24 12:21:22;;;;;;;10.40;4.23;;;;;;;10.55;26.63;101434.25;30985347;28;20137;-75
2021/11/24 12:36:29;;;;;;;11.40;3.43;;;;;;;6.78;31.75;101446.13;30995512;28;20086;-74
2021/11/24 12:51:36;;;;;;;9.97;3.93;;;;;;;5.25;34.50;101458.34;30993118;28;20089;-76
2021/11/24 13:06:41;;;;;;;7.63;3.83;;;;;;;4.79;36.53;101463.38;30984060;28;20057;-73
2021/11/24 13:21:51;;;;;;;5.43;3.47;;;;;;;3.95;39.34;101478.75;30989390;28;20144;-73
2021/11/24 13:36:54;;;;;;;6.13;3.67;;;;;;;3.81;40.52;101483.69;30967502;28;20061;-74
2021/11/24 13:52:10;;;;;;;13.77;5.53;;;;;;;3.72;41.89;101494.59;30988642;28;20058;-75
2021/11/24 14:07:17;;;;;;;;;;;;;;;3.55;42.41;101498.28;31006948;28;20050;-74
2021/11/24 14:22:37;;;;;;;14.30;4.33;;;;;;;3.20;43.06;101507.91;30997530;28;19961;-75
2021/11/24 14:37:41;;;;;;;7.30;3.37;;;;;;;2.78;44.59;101508.03;30998498;28;20050;-75
2021/11/24 14:52:48;;;;;;;9.73;4.73;;;;;;;2.59;45.11;101516.59;31004792;28;20064;-75
2021/11/24 15:07:50;;;;;;;10.93;5.00;;;;;;;2.47;45.15;101534.50;30973544;28;20050;-74
2021/11/24 15:22:52;;;;;;;32.93;10.10;;;;;;;2.43;46.58;101533.59;30991125;28;20067;-76
2021/11/24 15:37:54;;;;;;;34.80;10.30;;;;;;;2.34;48.54;101547.88;30981741;28;20161;-74
2021/11/24 15:52:56;;;;;;;21.13;7.90;;;;;;;2.20;48.12;101554.56;30989686;28;20054;-73
2021/11/24 16:07:59;;;;;;;9.47;6.27;;;;;;;2.08;50.39;101566.00;30981339;28;20157;-74
2021/11/24 16:23:07;;;;;;;19.83;7.87;;;;;;;1.98;52.20;101572.53;30972195;28;20062;-74
2021/11/24 16:38:09;;;;;;;21.73;8.77;;;;;;;1.79;54.56;101574.06;30991660;28;20050;-73
2021/11/24 16:53:11;;;;;;;19.80;9.20;;;;;;;1.52;53.76;101570.69;30982664;28;20054;-73
2021/11/24 17:08:13;;;;;;;19.10;8.43;;;;;;;1.25;55.75;101581.81;30972601;28;20389;-73
2021/11/24 17:23:16;;;;;;;16.53;8.30;;;;;;;0.96;57.56;101580.59;30987885;28;20058;-77
2021/11/24 17:38:19;;;;;;;16.93;8.80;;;;;;;0.90;57.92;101581.91;30988812;28;20050;-76
2021/11/24 17:53:21;;;;;;;24.23;10.37;;;;;;;0.74;60.43;101566.63;30979434;28;20460;-77
2021/11/24 18:08:23;;;;;;;21.07;9.17;;;;;;;0.71;60.83;101584.09;30963503;28;20425;-73
2021/11/24 18:23:25;;;;;;;22.27;9.60;;;;;;;0.65;61.05;101574.69;30986435;28;20161;-74
2021/11/24 18:38:28;;;;;;;21.10;9.40;;;;;;;0.59;61.12;101583.94;30969933;28;20445;-72
2021/11/24 18:53:30;;;;;;;20.97;12.87;;;;;;;0.53;63.06;101593.22;30978569;28;20157;-74
2021/11/24 19:08:37;;;;;;;16.63;10.17;;;;;;;0.50;62.12;101583.16;30973858;28;20053;-74
2021/11/24 19:23:39;;;;;;;22.90;8.90;;;;;;;0.56;61.30;101585.38;30982011;28;20431;-74
2021/11/24 19:38:41;;;;;;;19.33;7.07;;;;;;;0.55;60.08;101596.38;30967181;28;20065;-74
2021/11/24 19:53:43;;;;;;;22.87;7.40;;;;;;;0.49;60.02;101592.25;30971431;28;20061;-74
2021/11/24 20:08:45;;;;;;;18.90;7.30;;;;;;;0.39;60.63;101581.91;30964565;28;20465;-73
2021/11/24 20:23:47;;;;;;;15.07;7.33;;;;;;;0.34;61.63;101596.97;30983887;28;20526;-71
2021/11/24 20:38:49;;;;;;;14.63;7.93;;;;;;;0.34;62.73;101607.66;30973808;28;20046;-75
2021/11/24 20:53:53;;;;;;;13.13;6.93;;;;;;;0.27;62.30;101612.69;30974565;28;20141;-73
2021/11/24 21:08:55;;;;;;;14.90;6.90;;;;;;;0.09;61.60;101619.09;30940823;28;20050;-74
2021/11/24 21:23:57;;;;;;;13.97;6.90;;;;;;;-0.02;63.76;101626.63;30963884;28;20065;-73
2021/11/24 21:38:59;;;;;;;14.27;7.57;;;;;;;0.03;65.05;101612.31;30968928;28;20042;-75
2021/11/24 21:54:01;;;;;;;14.97;8.30;;;;;;;-0.05;66.84;101611.22;30957947;28;20519;-72
2021/11/24 22:24:24;;;;;;;18.73;9.30;;;;;;;-0.10;76.77;101591.88;30994934;28;20069;-73
2021/11/24 22:39:26;;;;;;;17.37;8.57;;;;;;;-0.16;82.30;101585.09;30985164;28;20050;-74
2021/11/24 22:54:28;;;;;;;15.23;9.63;;;;;;;-0.15;81.61;101584.00;30940863;28;20050;-73
2021/11/24 23:09:32;;;;;;;26.23;10.40;;;;;;;-0.17;83.10;101567.50;30967764;28;20060;-73
2021/11/24 23:24:34;;;;;;;39.13;16.10;;;;;;;-0.28;83.32;101574.22;30959060;28;20558;-73
2021/11/24 23:39:38;;;;;;;27.33;12.27;;;;;;;-0.47;81.60;101577.91;30969389;28;20058;-73
2021/11/24 23:54:40;;;;;;;41.43;19.47;;;;;;;-0.57;84.05;101567.53;30984509;28;20065;-72
